createdAt,value
2024-02-29T00:00:15.311Z,6.97
2024-02-29T00:02:42.285Z,7.47
2024-02-29T00:05:12.882Z,6.75
2024-02-29T00:07:41.143Z,9.68
2024-02-29T00:10:10.071Z,6.72
2024-02-29T00:12:37.364Z,10.90
2024-02-29T00:15:04.502Z,6.90
2024-02-29T00:17:33.007Z,8.10
2024-02-29T00:20:00.756Z,11.90
2024-02-29T00:22:27.638Z,9.45
2024-02-29T00:24:54.513Z,7.45
2024-02-29T00:27:23.235Z,6.38
2024-02-29T00:29:50.069Z,5.95
2024-02-29T00:32:16.879Z,6.47
2024-02-29T00:34:43.993Z,8.05
2024-02-29T00:37:10.866Z,7.63
2024-02-29T00:39:38.318Z,5.10
2024-02-29T00:42:05.351Z,5.70
2024-02-29T00:44:32.104Z,6.03
2024-02-29T00:46:58.923Z,7.75
2024-02-29T00:49:25.861Z,12.98
2024-02-29T00:51:52.713Z,6.53
2024-02-29T00:54:19.664Z,9.52
2024-02-29T00:56:46.666Z,7.30
2024-02-29T00:59:13.457Z,8.05
2024-02-29T01:01:40.517Z,12.18
2024-02-29T01:04:07.906Z,8.73
2024-02-29T01:06:34.901Z,7.20
2024-02-29T01:09:01.728Z,5.55
2024-02-29T01:11:29.486Z,8.63
2024-02-29T01:13:56.453Z,6.40
2024-02-29T01:16:23.407Z,11.45
2024-02-29T01:18:50.210Z,6.88
2024-02-29T01:21:17.065Z,6.60
2024-02-29T01:23:43.837Z,12.25
2024-02-29T01:26:12.075Z,9.32
2024-02-29T01:28:38.903Z,10.95
2024-02-29T01:31:05.815Z,9.10
2024-02-29T01:33:33.529Z,12.98
2024-02-29T01:36:00.369Z,10.00
2024-02-29T01:38:27.436Z,9.05
2024-02-29T01:40:54.268Z,8.90
2024-02-29T01:43:21.150Z,8.45
2024-02-29T01:46:03.997Z,8.13
2024-02-29T01:48:31.039Z,8.00
2024-02-29T01:50:57.968Z,8.52
2024-02-29T01:53:24.985Z,7.13
2024-02-29T01:55:52.177Z,7.70
2024-02-29T01:58:19.840Z,8.27
2024-02-29T02:00:46.988Z,7.80
2024-02-29T02:03:13.915Z,8.02
2024-02-29T02:05:40.931Z,7.10
2024-02-29T02:08:08.528Z,10.07
2024-02-29T02:10:35.489Z,15.18
2024-02-29T02:13:02.340Z,7.63
2024-02-29T02:15:29.508Z,6.68
2024-02-29T02:17:56.423Z,8.30
2024-02-29T02:20:23.664Z,6.28
2024-02-29T02:22:50.712Z,7.45
2024-02-29T02:25:18.174Z,5.38
2024-02-29T02:27:45.013Z,10.55
2024-02-29T02:30:12.421Z,8.32
2024-02-29T02:32:40.674Z,9.05
2024-02-29T02:35:08.252Z,7.88
2024-02-29T02:37:36.221Z,7.55
2024-02-29T02:40:06.336Z,8.32
2024-02-29T02:42:33.293Z,8.40
2024-02-29T02:45:00.244Z,9.73
2024-02-29T02:47:27.195Z,7.65
2024-02-29T02:49:53.972Z,9.85
2024-02-29T02:52:20.790Z,10.05
2024-02-29T02:54:47.763Z,8.27
2024-02-29T02:57:14.660Z,7.30
2024-02-29T02:59:41.661Z,10.40
2024-02-29T03:02:09.214Z,9.90
2024-02-29T03:04:36.104Z,8.40
2024-02-29T03:07:03.489Z,6.30
2024-02-29T03:09:31.987Z,9.15
2024-02-29T03:11:58.920Z,7.57
2024-02-29T03:14:25.746Z,11.45
2024-02-29T03:16:52.637Z,11.60
2024-02-29T03:19:19.457Z,9.57
2024-02-29T03:21:46.380Z,9.85
2024-02-29T03:24:13.353Z,7.97
2024-02-29T03:26:40.181Z,9.35
2024-02-29T03:29:08.458Z,10.68
2024-02-29T03:31:35.369Z,10.30
2024-02-29T03:34:04.111Z,10.45
2024-02-29T03:36:31.316Z,8.18
2024-02-29T03:38:59.186Z,12.48
2024-02-29T03:41:26.216Z,9.52
2024-02-29T03:43:53.052Z,16.50
2024-02-29T03:46:20.174Z,10.77
2024-02-29T03:48:47.153Z,12.60
2024-02-29T03:51:14.840Z,10.98
2024-02-29T03:53:41.736Z,14.82
2024-02-29T03:56:08.615Z,8.73
2024-02-29T03:58:35.533Z,12.68
2024-02-29T04:01:02.956Z,8.52
2024-02-29T04:03:29.804Z,10.73
2024-02-29T04:05:56.693Z,11.95
2024-02-29T04:08:23.707Z,13.10
2024-02-29T04:10:51.811Z,10.07
2024-02-29T04:13:19.319Z,13.30
2024-02-29T04:15:49.703Z,11.38
2024-02-29T04:18:17.278Z,8.30
2024-02-29T04:20:45.407Z,12.75
2024-02-29T04:23:12.659Z,9.13
2024-02-29T04:25:39.548Z,13.65
2024-02-29T04:28:07.019Z,11.05
2024-02-29T04:30:34.012Z,11.10
2024-02-29T04:33:01.905Z,14.50
2024-02-29T04:35:28.855Z,20.20
2024-02-29T04:37:55.846Z,18.00
2024-02-29T04:40:22.832Z,12.90
2024-02-29T04:42:49.809Z,16.98
2024-02-29T04:45:16.923Z,19.02
2024-02-29T04:47:46.211Z,13.43
2024-02-29T04:50:13.566Z,17.75
2024-02-29T04:52:40.419Z,20.98
2024-02-29T04:55:07.623Z,12.90
2024-02-29T04:57:34.594Z,13.40
2024-02-29T05:00:01.465Z,20.88
2024-02-29T05:02:28.328Z,16.75
2024-02-29T05:04:55.211Z,13.80
2024-02-29T05:07:22.613Z,16.17
2024-02-29T05:09:49.468Z,12.60
2024-02-29T05:12:16.357Z,17.30
2024-02-29T05:14:43.228Z,15.38
2024-02-29T05:17:10.477Z,13.73
2024-02-29T05:19:39.064Z,15.65
2024-02-29T05:22:06.254Z,12.50
2024-02-29T05:24:33.297Z,13.55
2024-02-29T05:27:00.336Z,12.82
2024-02-29T05:29:27.291Z,12.18
2024-02-29T05:31:54.491Z,13.05
2024-02-29T05:34:27.529Z,14.05
2024-02-29T05:36:54.486Z,10.50
2024-02-29T05:39:21.586Z,14.45
2024-02-29T05:41:48.534Z,11.75
2024-02-29T05:44:15.563Z,12.40
2024-02-29T05:46:42.403Z,10.98
2024-02-29T05:49:09.684Z,10.40
2024-02-29T05:51:36.836Z,11.27
2024-02-29T05:54:03.898Z,10.35
2024-02-29T05:56:31.067Z,11.50
2024-02-29T05:58:57.973Z,16.02
2024-02-29T06:01:28.015Z,18.65
2024-02-29T06:03:56.748Z,24.80
2024-02-29T06:06:23.691Z,25.23
2024-02-29T06:08:50.470Z,26.73
2024-02-29T06:11:17.428Z,29.13
2024-02-29T06:13:44.879Z,20.80
2024-02-29T06:16:15.232Z,24.63
2024-02-29T06:18:43.533Z,22.73
2024-02-29T06:21:10.455Z,25.88
2024-02-29T06:23:38.009Z,20.73
2024-02-29T06:26:05.605Z,25.55
2024-02-29T06:28:32.854Z,24.48
2024-02-29T06:30:59.847Z,29.67
2024-02-29T06:33:26.906Z,26.02
2024-02-29T06:35:53.874Z,22.75
2024-02-29T06:38:20.854Z,27.05
2024-02-29T06:40:48.187Z,27.33
2024-02-29T06:43:15.069Z,23.67
2024-02-29T06:45:52.155Z,19.02
2024-02-29T06:48:20.373Z,24.27
2024-02-29T06:50:47.449Z,19.38
2024-02-29T06:53:14.744Z,31.98
2024-02-29T06:55:41.925Z,33.00
2024-02-29T06:58:09.044Z,20.05
2024-02-29T07:00:36.339Z,32.85
2024-02-29T07:03:03.233Z,32.55
2024-02-29T07:05:32.659Z,24.75
2024-02-29T07:08:02.621Z,24.08
2024-02-29T07:10:29.855Z,28.58
2024-02-29T07:12:56.886Z,31.92
2024-02-29T07:15:23.971Z,27.10
2024-02-29T07:17:50.796Z,22.65
2024-02-29T07:20:19.111Z,19.23
2024-02-29T07:22:47.673Z,25.92
2024-02-29T07:25:16.369Z,26.48
2024-02-29T07:27:45.280Z,28.13
2024-02-29T07:30:12.648Z,29.90
2024-02-29T07:32:39.947Z,28.77
2024-02-29T07:35:07.417Z,33.08
2024-02-29T07:37:34.808Z,30.55
2024-02-29T07:40:02.161Z,42.55
2024-02-29T07:42:29.191Z,38.78
2024-02-29T07:44:56.242Z,27.35
2024-02-29T07:47:23.171Z,33.33
2024-02-29T07:49:50.141Z,36.17
2024-02-29T07:52:17.150Z,24.60
2024-02-29T07:54:47.013Z,38.95
2024-02-29T07:57:14.223Z,32.42
2024-02-29T07:59:44.175Z,27.90
2024-02-29T08:02:11.185Z,29.13
2024-02-29T08:04:38.246Z,35.45
2024-02-29T08:07:05.473Z,26.67
2024-02-29T08:09:33.031Z,27.40
2024-02-29T08:12:00.074Z,27.52
2024-02-29T08:14:27.763Z,22.50
2024-02-29T08:16:54.629Z,29.80
2024-02-29T08:19:21.607Z,37.30
2024-02-29T08:21:49.750Z,26.83
2024-02-29T08:24:17.500Z,28.63
2024-02-29T08:26:47.341Z,28.17
2024-02-29T08:29:14.906Z,29.38
2024-02-29T08:31:42.730Z,31.60
2024-02-29T08:34:10.104Z,31.45
2024-02-29T08:36:37.248Z,30.20
2024-02-29T08:39:04.262Z,28.15
2024-02-29T08:41:31.172Z,28.40
2024-02-29T08:43:58.091Z,28.25
2024-02-29T08:46:25.375Z,33.22
2024-02-29T08:48:52.299Z,26.70
2024-02-29T08:51:19.340Z,22.52
2024-02-29T08:53:46.517Z,24.15
2024-02-29T08:56:13.391Z,22.08
2024-02-29T08:58:40.328Z,25.25
2024-02-29T09:01:09.248Z,26.98
2024-02-29T09:03:36.334Z,26.40
2024-02-29T09:06:03.266Z,26.45
2024-02-29T09:08:30.195Z,25.92
2024-02-29T09:10:57.581Z,26.70
2024-02-29T09:13:30.481Z,28.95
2024-02-29T09:16:02.221Z,28.23
2024-02-29T09:18:31.610Z,25.63
2024-02-29T09:20:58.702Z,26.20
2024-02-29T09:23:27.441Z,24.75
2024-02-29T09:25:55.140Z,20.85
2024-02-29T09:28:22.260Z,18.80
2024-02-29T09:30:49.184Z,23.27
2024-02-29T09:33:16.176Z,29.40
2024-02-29T09:35:43.163Z,25.98
2024-02-29T09:38:10.025Z,23.92
2024-02-29T09:40:45.716Z,21.13
2024-02-29T09:43:16.978Z,19.25
2024-02-29T09:45:45.116Z,13.43
2024-02-29T09:48:12.411Z,18.15
2024-02-29T09:50:39.601Z,11.07
2024-02-29T09:53:06.608Z,13.77
2024-02-29T09:55:33.721Z,11.25
2024-02-29T09:58:02.724Z,10.30
2024-02-29T10:00:31.793Z,12.13
2024-02-29T10:02:58.886Z,13.75
2024-02-29T10:05:26.045Z,10.20
2024-02-29T10:07:53.402Z,9.25
2024-02-29T10:10:20.466Z,16.63
2024-02-29T10:12:56.955Z,13.85
2024-02-29T10:15:30.458Z,13.50
2024-02-29T10:17:57.718Z,11.88
2024-02-29T10:20:26.224Z,10.32
2024-02-29T10:22:53.418Z,10.43
2024-02-29T10:25:21.946Z,11.57
2024-02-29T10:27:49.368Z,9.60
2024-02-29T10:30:18.290Z,11.73
2024-02-29T10:32:46.690Z,14.10
2024-02-29T10:35:20.538Z,14.43
2024-02-29T10:37:52.800Z,17.23
2024-02-29T10:40:19.991Z,9.75
2024-02-29T10:42:57.403Z,10.63
2024-02-29T10:45:29.773Z,13.98
2024-02-29T10:48:13.618Z,9.95
2024-02-29T10:51:10.175Z,10.40
2024-02-29T10:54:10.845Z,14.73
2024-02-29T10:56:41.294Z,9.95
2024-02-29T10:59:09.986Z,7.65
2024-02-29T11:01:38.837Z,9.25
2024-02-29T11:04:07.417Z,11.23
2024-02-29T11:06:57.917Z,9.85
2024-02-29T11:09:28.131Z,7.50
2024-02-29T11:12:16.930Z,7.63
2024-02-29T11:14:50.607Z,6.30
2024-02-29T11:17:18.275Z,8.95
2024-02-29T11:19:52.101Z,17.35
2024-02-29T11:22:34.252Z,12.02
2024-02-29T11:25:10.792Z,11.77
2024-02-29T11:27:38.324Z,9.52
2024-02-29T11:30:05.871Z,7.63
2024-02-29T11:32:35.979Z,9.43
2024-02-29T11:35:04.026Z,8.88
2024-02-29T11:37:34.768Z,13.70
2024-02-29T11:40:06.417Z,11.50
2024-02-29T11:42:33.510Z,12.63
2024-02-29T11:45:00.309Z,14.80
2024-02-29T11:47:28.934Z,12.20
2024-02-29T11:50:00.540Z,12.32
2024-02-29T11:52:27.683Z,13.68
2024-02-29T11:54:55.045Z,12.07
2024-02-29T11:57:23.980Z,9.23
2024-02-29T11:59:53.306Z,10.85
2024-02-29T12:02:40.281Z,8.00
2024-02-29T12:05:07.782Z,8.00
2024-02-29T12:07:34.690Z,8.00
2024-02-29T12:10:02.949Z,10.15
2024-02-29T12:12:30.473Z,12.90
2024-02-29T12:14:58.465Z,10.30
2024-02-29T12:17:28.496Z,11.27
2024-02-29T12:19:57.258Z,9.40
2024-02-29T12:22:24.318Z,9.25
2024-02-29T12:24:51.534Z,12.82
2024-02-29T12:27:18.828Z,10.10
2024-02-29T12:29:45.838Z,7.57
2024-02-29T12:32:13.133Z,11.02
2024-02-29T12:34:41.027Z,7.15
2024-02-29T12:37:11.008Z,9.63
2024-02-29T12:39:38.065Z,12.02
2024-02-29T12:42:05.133Z,6.47
2024-02-29T12:44:32.251Z,7.25
2024-02-29T12:46:59.643Z,8.25
2024-02-29T12:49:26.491Z,9.00
2024-02-29T12:51:56.109Z,15.35
2024-02-29T12:54:23.738Z,6.57
2024-02-29T12:56:50.733Z,9.60
2024-02-29T12:59:18.844Z,8.80
2024-02-29T13:01:46.600Z,6.22
2024-02-29T13:04:13.649Z,9.30
2024-02-29T13:06:40.743Z,6.90
2024-02-29T13:09:08.727Z,8.25
2024-02-29T13:11:35.722Z,14.45
2024-02-29T13:14:02.598Z,9.98
2024-02-29T13:16:29.723Z,6.75
2024-02-29T13:18:56.720Z,8.40
2024-02-29T13:21:25.108Z,8.63
2024-02-29T13:23:52.072Z,8.38
2024-02-29T13:26:18.908Z,11.98
2024-02-29T13:28:46.750Z,8.70
2024-02-29T13:31:14.798Z,11.05
2024-02-29T13:33:42.759Z,10.77
2024-02-29T13:36:09.893Z,9.70
2024-02-29T13:38:36.911Z,9.52
2024-02-29T13:41:03.904Z,9.43
2024-02-29T13:43:30.678Z,7.88
2024-02-29T13:45:57.948Z,6.28
2024-02-29T13:48:25.570Z,9.68
2024-02-29T13:50:52.374Z,10.05
2024-02-29T13:53:19.370Z,6.63
2024-02-29T13:55:48.318Z,10.02
2024-02-29T13:58:15.577Z,7.68
2024-02-29T14:00:42.858Z,12.07
2024-02-29T14:03:09.884Z,7.28
2024-02-29T14:05:36.641Z,6.88
2024-02-29T14:08:03.708Z,8.75
2024-02-29T14:10:30.715Z,9.57
2024-02-29T14:12:57.682Z,9.45
2024-02-29T14:15:24.890Z,7.07
2024-02-29T14:17:51.996Z,8.15
2024-02-29T14:20:18.921Z,6.93
2024-02-29T14:22:46.119Z,10.60
2024-02-29T14:25:13.008Z,6.43
2024-02-29T14:27:40.043Z,7.15
2024-02-29T14:30:10.683Z,13.43
2024-02-29T14:32:39.106Z,10.30
2024-02-29T14:35:06.398Z,13.82
2024-02-29T14:37:34.235Z,9.50
2024-02-29T14:40:01.617Z,11.30
2024-02-29T14:42:28.560Z,9.30
2024-02-29T14:44:55.516Z,8.88
2024-02-29T14:47:22.668Z,8.70
2024-02-29T14:49:49.500Z,8.82
2024-02-29T14:52:16.554Z,7.15
2024-02-29T14:54:44.264Z,11.70
2024-02-29T14:57:12.880Z,8.98
2024-02-29T14:59:42.551Z,9.52
2024-02-29T15:02:09.577Z,7.22
2024-02-29T15:04:38.725Z,9.77
2024-02-29T15:07:06.947Z,11.20
2024-02-29T15:09:33.949Z,8.70
2024-02-29T15:12:00.744Z,11.45
2024-02-29T15:14:27.701Z,14.88
2024-02-29T15:16:55.272Z,9.27
2024-02-29T15:19:23.031Z,14.38
2024-02-29T15:21:50.548Z,10.25
2024-02-29T15:24:17.877Z,10.57
2024-02-29T15:26:45.465Z,9.52
2024-02-29T15:29:12.449Z,12.55
2024-02-29T15:31:41.242Z,11.05
2024-02-29T15:34:08.221Z,13.43
2024-02-29T15:36:35.675Z,18.42
2024-02-29T15:39:03.285Z,12.25
2024-02-29T15:41:30.206Z,11.48
2024-02-29T15:43:57.048Z,15.45
2024-02-29T15:46:24.008Z,14.30
2024-02-29T15:48:51.856Z,12.00
2024-02-29T15:51:19.052Z,15.30
2024-02-29T15:56:31.426Z,14.48
2024-02-29T15:58:58.406Z,11.32
2024-02-29T16:01:25.442Z,14.85
2024-02-29T16:03:53.513Z,11.38
2024-02-29T16:06:20.868Z,13.40
2024-02-29T16:08:47.743Z,12.48
2024-02-29T16:11:15.563Z,15.98
2024-02-29T16:13:42.946Z,15.77
2024-02-29T16:16:09.740Z,14.57
2024-02-29T16:18:36.897Z,15.25
2024-02-29T16:21:07.190Z,12.27
2024-02-29T16:23:35.883Z,13.27
2024-02-29T16:26:05.944Z,13.40
2024-02-29T16:28:32.972Z,20.77
2024-02-29T16:30:59.873Z,14.15
2024-02-29T16:33:26.920Z,13.05
2024-02-29T16:35:53.851Z,18.05
2024-02-29T16:38:21.544Z,14.32
2024-02-29T16:40:49.196Z,15.18
2024-02-29T16:43:21.790Z,16.65
2024-02-29T16:45:50.035Z,15.15
2024-02-29T16:48:17.196Z,15.32
2024-02-29T16:50:46.150Z,15.88
2024-02-29T16:53:13.187Z,18.88
2024-02-29T16:55:40.108Z,15.48
2024-02-29T16:58:07.511Z,14.63
2024-02-29T17:00:34.979Z,19.95
2024-02-29T17:03:01.857Z,17.70
2024-02-29T17:05:28.649Z,15.32
2024-02-29T17:07:55.549Z,23.67
2024-02-29T17:10:22.439Z,17.98
2024-02-29T17:12:49.324Z,18.98
2024-02-29T17:15:16.337Z,23.83
2024-02-29T17:17:43.212Z,17.92
2024-02-29T17:20:10.617Z,18.75
2024-02-29T17:22:37.546Z,13.20
2024-02-29T17:25:04.814Z,14.63
2024-02-29T17:27:33.051Z,16.98
2024-02-29T17:29:59.953Z,16.55
2024-02-29T17:32:28.044Z,19.45
2024-02-29T17:34:54.861Z,18.38
2024-02-29T17:37:23.435Z,18.33
2024-02-29T17:39:51.465Z,15.25
2024-02-29T17:42:18.259Z,14.40
2024-02-29T17:44:45.065Z,15.10
2024-02-29T17:47:11.889Z,18.95
2024-02-29T17:49:38.795Z,20.02
2024-02-29T17:52:07.608Z,20.50
2024-02-29T17:54:34.514Z,15.25
2024-02-29T17:57:01.317Z,17.73
2024-02-29T17:59:28.249Z,15.18
2024-02-29T18:01:55.254Z,21.63
2024-02-29T18:04:22.287Z,16.73
2024-02-29T18:06:51.457Z,14.20
2024-02-29T18:09:26.789Z,15.93
2024-02-29T18:11:53.795Z,15.48
2024-02-29T18:14:20.555Z,14.32
2024-02-29T18:16:47.368Z,16.05
2024-02-29T18:19:14.321Z,21.52
2024-02-29T18:21:44.815Z,17.63
2024-02-29T18:24:12.558Z,18.75
2024-02-29T18:26:39.864Z,13.40
2024-02-29T18:29:06.754Z,17.33
2024-02-29T18:31:33.964Z,15.88
2024-02-29T18:34:00.961Z,10.68
2024-02-29T18:36:27.836Z,17.40
2024-02-29T18:38:55.634Z,10.82
2024-02-29T18:41:22.467Z,13.88
2024-02-29T18:43:49.325Z,12.40
2024-02-29T18:46:17.803Z,12.93
2024-02-29T18:48:44.874Z,16.20
2024-02-29T18:51:11.741Z,13.82
2024-02-29T18:53:38.487Z,11.57
2024-02-29T18:56:05.813Z,15.45
2024-02-29T18:58:32.727Z,9.57
2024-02-29T19:00:59.680Z,11.18
2024-02-29T19:03:26.499Z,13.40
2024-02-29T19:05:53.388Z,14.30
2024-02-29T19:08:21.578Z,13.30
2024-02-29T19:10:48.652Z,14.88
2024-02-29T19:13:16.253Z,9.98
2024-02-29T19:15:43.193Z,11.60
2024-02-29T19:18:10.015Z,13.68
2024-02-29T19:20:36.866Z,12.60
2024-02-29T19:23:03.968Z,14.05
2024-02-29T19:25:30.875Z,13.93
2024-02-29T19:27:57.679Z,13.88
2024-02-29T19:30:24.502Z,16.15
2024-02-29T19:32:51.486Z,9.65
2024-02-29T19:35:18.288Z,14.25
2024-02-29T19:37:46.681Z,11.20
2024-02-29T19:40:14.368Z,11.65
2024-02-29T19:42:41.883Z,10.27
2024-02-29T19:45:11.982Z,11.32
2024-02-29T19:47:40.182Z,11.23
2024-02-29T19:50:10.399Z,10.57
2024-02-29T19:52:37.334Z,10.13
2024-02-29T19:55:06.491Z,10.88
2024-02-29T19:57:33.552Z,13.70
2024-02-29T20:00:00.457Z,13.60
2024-02-29T20:02:27.328Z,12.30
2024-02-29T20:04:54.067Z,9.23
2024-02-29T20:07:21.131Z,12.27
2024-02-29T20:09:53.325Z,13.60
2024-02-29T20:12:20.590Z,12.25
2024-02-29T20:14:48.563Z,9.98
2024-02-29T20:17:15.516Z,10.43
2024-02-29T20:19:42.547Z,11.35
2024-02-29T20:22:09.615Z,10.60
2024-02-29T20:24:36.464Z,8.25
2024-02-29T20:27:04.238Z,9.25
2024-02-29T20:29:31.099Z,12.52
2024-02-29T20:31:57.986Z,13.32
2024-02-29T20:34:24.845Z,9.02
2024-02-29T20:36:52.195Z,10.25
2024-02-29T20:39:19.768Z,11.50
2024-02-29T20:41:46.818Z,11.95
2024-02-29T20:44:14.204Z,14.82
2024-02-29T20:46:41.251Z,13.73
2024-02-29T20:49:08.933Z,12.35
2024-02-29T20:51:35.828Z,18.27
2024-02-29T20:54:02.858Z,12.23
2024-02-29T20:56:29.847Z,11.27
2024-02-29T20:58:56.612Z,11.98
2024-02-29T21:01:23.595Z,12.30
2024-02-29T21:03:50.933Z,9.77
2024-02-29T21:06:19.602Z,12.05
2024-02-29T21:08:46.577Z,11.43
2024-02-29T21:11:13.590Z,12.32
2024-02-29T21:13:40.516Z,10.50
2024-02-29T21:16:07.861Z,12.23
2024-02-29T21:18:34.909Z,9.82
2024-02-29T21:21:01.916Z,11.00
2024-02-29T21:23:28.928Z,9.82
2024-02-29T21:25:55.982Z,11.18
2024-02-29T21:28:22.859Z,10.15
2024-02-29T21:30:50.029Z,10.93
2024-02-29T21:33:18.297Z,11.18
2024-02-29T21:35:45.524Z,13.18
2024-02-29T21:38:12.327Z,12.57
2024-02-29T21:40:39.289Z,11.70
2024-02-29T21:43:06.173Z,12.25
2024-02-29T21:45:32.994Z,13.40
2024-02-29T21:47:59.934Z,10.77
2024-02-29T21:50:26.770Z,13.43
2024-02-29T21:52:53.732Z,11.13
2024-02-29T21:55:20.843Z,13.25
2024-02-29T21:57:47.700Z,12.88
2024-02-29T22:00:15.239Z,11.32
2024-02-29T22:02:42.111Z,11.20
2024-02-29T22:05:10.179Z,11.32
2024-02-29T22:07:37.248Z,10.07
2024-02-29T22:10:04.282Z,9.52
2024-02-29T22:12:31.337Z,9.00
2024-02-29T22:14:58.510Z,8.90
2024-02-29T22:17:25.299Z,7.38
2024-02-29T22:19:52.349Z,7.15
2024-02-29T22:22:19.408Z,6.75
2024-02-29T22:24:47.056Z,8.23
2024-02-29T22:27:14.015Z,9.93
2024-02-29T22:29:40.882Z,8.45
2024-02-29T22:32:08.053Z,9.88
2024-02-29T22:34:34.983Z,9.95
2024-02-29T22:37:04.188Z,7.57
2024-02-29T22:39:31.166Z,7.60
2024-02-29T22:42:01.942Z,7.85
2024-02-29T22:44:29.963Z,8.18
2024-02-29T22:46:56.792Z,6.57
2024-02-29T22:49:24.543Z,6.30
2024-02-29T22:51:52.519Z,10.88
2024-02-29T22:54:20.534Z,11.73
2024-02-29T22:56:47.326Z,11.05
2024-02-29T22:59:14.337Z,11.10
2024-02-29T23:01:46.702Z,9.40
2024-02-29T23:04:14.564Z,9.95
2024-02-29T23:06:41.696Z,11.75
2024-02-29T23:09:08.597Z,9.40
2024-02-29T23:11:35.923Z,9.07
2024-02-29T23:14:02.926Z,8.95
2024-02-29T23:16:29.956Z,9.38
2024-02-29T23:18:56.903Z,13.15
2024-02-29T23:21:23.799Z,12.27
2024-02-29T23:23:50.713Z,7.13
2024-02-29T23:26:18.297Z,9.15
2024-02-29T23:28:45.263Z,8.07
2024-02-29T23:31:12.822Z,6.75
2024-02-29T23:33:39.779Z,6.43
2024-02-29T23:36:07.882Z,11.55
2024-02-29T23:38:34.868Z,7.85
2024-02-29T23:41:01.775Z,7.55
2024-02-29T23:43:28.749Z,10.98
2024-02-29T23:45:56.208Z,7.47
2024-02-29T23:48:23.157Z,6.45
2024-02-29T23:50:50.296Z,10.68
2024-02-29T23:53:17.362Z,7.13
2024-02-29T23:55:44.551Z,8.38
2024-02-29T23:58:11.480Z,6.68
